createdAt,value
2023-04-22T00:00:51.964Z,27.04
2023-04-22T00:01:51.976Z,27.04
2023-04-22T00:02:52.126Z,27.04
2023-04-22T00:03:52.245Z,27.04
2023-04-22T00:04:52.166Z,27.04
2023-04-22T00:05:52.095Z,27.08
2023-04-22T00:06:51.926Z,27.07
2023-04-22T00:07:51.925Z,27.04
2023-04-22T00:08:51.908Z,27.00
2023-04-22T00:09:51.936Z,27.00
2023-04-22T00:10:51.901Z,27.03
2023-04-22T00:11:51.908Z,27.03
2023-04-22T00:12:51.905Z,26.99
2023-04-22T00:13:51.879Z,26.99
2023-04-22T00:14:51.868Z,26.94
2023-04-22T00:15:51.987Z,26.97
2023-04-22T00:16:51.846Z,26.92
2023-04-22T00:17:51.863Z,26.90
2023-04-22T00:18:51.833Z,26.88
2023-04-22T00:19:51.829Z,26.90
2023-04-22T00:20:51.870Z,26.93
2023-04-22T00:21:51.819Z,26.92
2023-04-22T00:22:51.807Z,26.89
2023-04-22T00:23:51.811Z,26.85
2023-04-22T00:24:51.795Z,26.84
2023-04-22T00:25:51.807Z,26.84
2023-04-22T00:26:51.783Z,26.85
2023-04-22T00:27:51.782Z,26.82
2023-04-22T00:28:51.790Z,26.83
2023-04-22T00:29:51.762Z,26.81
2023-04-22T00:30:51.898Z,26.76
2023-04-22T00:31:51.849Z,26.81
2023-04-22T00:32:51.800Z,26.77
2023-04-22T00:33:51.737Z,26.73
2023-04-22T00:34:51.734Z,26.71
2023-04-22T00:35:51.954Z,26.72
2023-04-22T00:36:51.727Z,26.76
2023-04-22T00:37:51.731Z,26.76
2023-04-22T00:38:51.697Z,26.73
2023-04-22T00:39:51.704Z,26.75
2023-04-22T00:40:51.732Z,26.72
2023-04-22T00:41:51.680Z,26.69
2023-04-22T00:42:51.703Z,26.68
2023-04-22T00:43:51.669Z,26.73
2023-04-22T00:44:51.687Z,26.71
2023-04-22T00:45:51.659Z,26.71
2023-04-22T00:46:51.740Z,26.71
2023-04-22T00:47:51.772Z,26.68
2023-04-22T00:48:51.640Z,26.67
2023-04-22T00:49:51.640Z,26.69
2023-04-22T00:50:51.660Z,26.65
2023-04-22T00:51:51.627Z,26.65
2023-04-22T00:52:51.623Z,26.63
2023-04-22T00:53:51.607Z,26.69
2023-04-22T00:54:51.601Z,26.68
2023-04-22T00:55:51.642Z,26.69
2023-04-22T00:56:51.598Z,26.61
2023-04-22T00:57:51.593Z,26.66
2023-04-22T00:58:51.594Z,26.64
2023-04-22T00:59:51.591Z,26.61
2023-04-22T01:00:51.656Z,26.59
2023-04-22T01:01:51.627Z,26.60
2023-04-22T01:02:51.768Z,26.61
2023-04-22T01:03:51.734Z,26.56
2023-04-22T01:04:51.595Z,26.63
2023-04-22T01:05:51.618Z,26.59
2023-04-22T01:06:51.606Z,26.64
2023-04-22T01:07:51.616Z,26.64
2023-04-22T01:08:51.620Z,26.60
2023-04-22T01:09:51.620Z,26.60
2023-04-22T01:10:51.643Z,26.57
2023-04-22T01:11:51.622Z,26.60
2023-04-22T01:12:51.642Z,26.55
2023-04-22T01:13:51.628Z,26.55
2023-04-22T01:14:51.633Z,26.56
2023-04-22T01:15:51.703Z,26.57
2023-04-22T01:16:51.708Z,26.56
2023-04-22T01:17:51.680Z,26.55
2023-04-22T01:18:51.646Z,26.60
2023-04-22T01:19:51.666Z,26.57
2023-04-22T01:20:51.673Z,26.59
2023-04-22T01:21:51.649Z,26.59
2023-04-22T01:22:51.658Z,26.57
2023-04-22T01:23:51.659Z,26.56
2023-04-22T01:24:51.663Z,26.56
2023-04-22T01:25:51.678Z,26.60
2023-04-22T01:26:51.658Z,26.56
2023-04-22T01:27:51.654Z,26.61
2023-04-22T01:28:51.654Z,26.55
2023-04-22T01:29:51.665Z,26.56
2023-04-22T01:30:51.682Z,26.57
2023-04-22T01:31:51.676Z,26.59
2023-04-22T01:32:51.686Z,26.57
2023-04-22T01:33:51.646Z,26.57
2023-04-22T01:34:51.648Z,26.61
2023-04-22T01:35:51.700Z,26.60
2023-04-22T01:36:51.642Z,26.57
2023-04-22T01:37:51.645Z,26.59
2023-04-22T01:38:51.674Z,26.59
2023-04-22T01:39:51.648Z,26.63
2023-04-22T01:40:51.679Z,26.59
2023-04-22T01:41:51.656Z,26.53
2023-04-22T01:42:51.653Z,26.57
2023-04-22T01:43:51.684Z,26.60
2023-04-22T01:46:09.979Z,26.61
2023-04-22T01:47:10.921Z,26.60
2023-04-22T01:48:10.982Z,26.59
2023-04-22T01:49:10.888Z,26.59
2023-04-22T01:50:10.885Z,26.59
2023-04-22T01:51:10.879Z,26.59
2023-04-22T01:52:10.877Z,26.60
2023-04-22T01:53:10.865Z,26.64
2023-04-22T01:54:10.870Z,26.59
2023-04-22T01:55:10.862Z,26.60
2023-04-22T01:56:10.846Z,26.57
2023-04-22T01:57:10.839Z,26.60
2023-04-22T01:58:10.824Z,26.61
2023-04-22T01:59:10.821Z,26.60
2023-04-22T02:00:10.835Z,26.56
2023-04-22T02:01:10.907Z,26.59
2023-04-22T02:02:10.916Z,26.59
2023-04-22T02:03:11.494Z,26.54
2023-04-22T02:04:10.826Z,26.56
2023-04-22T02:05:10.845Z,26.59
2023-04-22T02:06:10.781Z,26.56
2023-04-22T02:07:10.767Z,26.57
2023-04-22T02:08:10.846Z,26.62
2023-04-22T02:09:10.742Z,26.57
2023-04-22T02:10:10.739Z,26.61
2023-04-22T02:11:10.734Z,26.55
2023-04-22T02:12:10.733Z,26.53
2023-04-22T02:13:10.717Z,26.56
2023-04-22T02:14:10.788Z,26.57
2023-04-22T02:15:10.704Z,26.57
2023-04-22T02:16:10.712Z,26.53
2023-04-22T02:17:10.686Z,26.56
2023-04-22T02:18:10.683Z,26.53
2023-04-22T02:19:10.732Z,26.57
2023-04-22T02:20:10.753Z,26.57
2023-04-22T02:21:10.670Z,26.60
2023-04-22T02:22:10.648Z,26.55
2023-04-22T02:23:10.661Z,26.56
2023-04-22T02:24:10.634Z,26.52
2023-04-22T02:25:10.635Z,26.53
2023-04-22T02:26:10.618Z,26.53
2023-04-22T02:27:10.607Z,26.53
2023-04-22T02:28:10.610Z,26.56
2023-04-22T02:29:10.595Z,26.56
2023-04-22T02:30:10.600Z,26.56
2023-04-22T02:31:10.598Z,26.57
2023-04-22T02:32:10.576Z,26.53
2023-04-22T02:33:10.565Z,26.57
2023-04-22T02:34:10.560Z,26.50
2023-04-22T02:35:10.548Z,26.54
2023-04-22T02:36:10.569Z,26.52
2023-04-22T02:37:10.537Z,26.53
2023-04-22T02:38:10.534Z,26.52
2023-04-22T02:39:10.529Z,26.52
2023-04-22T02:40:10.518Z,26.53
2023-04-22T02:41:10.516Z,26.50
2023-04-22T02:42:10.535Z,26.53
2023-04-22T02:43:10.542Z,26.50
2023-04-22T02:44:10.556Z,26.57
2023-04-22T02:45:10.559Z,26.52
2023-04-22T02:46:10.631Z,26.52
2023-04-22T02:47:10.588Z,26.53
2023-04-22T02:48:10.652Z,26.48
2023-04-22T02:49:10.614Z,26.52
2023-04-22T02:50:10.628Z,26.49
2023-04-22T02:51:10.642Z,26.52
2023-04-22T02:52:10.669Z,26.50
2023-04-22T02:53:10.648Z,26.56
2023-04-22T02:54:10.682Z,26.47
2023-04-22T02:55:10.680Z,26.49
2023-04-22T02:56:10.701Z,26.47
2023-04-22T02:57:10.727Z,26.53
2023-04-22T02:58:10.728Z,26.52
2023-04-22T02:59:10.748Z,26.52
2023-04-22T03:00:10.780Z,26.50
2023-04-22T03:01:10.818Z,26.53
2023-04-22T03:02:10.912Z,26.49
2023-04-22T03:03:10.961Z,26.50
2023-04-22T03:04:10.890Z,26.49
2023-04-22T03:05:10.841Z,26.52
2023-04-22T03:06:10.863Z,26.49
2023-04-22T03:07:10.935Z,26.46
2023-04-22T03:08:10.904Z,26.50
2023-04-22T03:09:10.871Z,26.50
2023-04-22T03:10:10.882Z,26.45
2023-04-22T03:11:10.893Z,26.50
2023-04-22T03:12:10.899Z,26.49
2023-04-22T03:13:10.910Z,26.49
2023-04-22T03:14:10.921Z,26.50
2023-04-22T03:15:10.942Z,26.45
2023-04-22T03:16:10.981Z,26.50
2023-04-22T03:17:10.952Z,26.45
2023-04-22T03:18:10.975Z,26.47
2023-04-22T03:19:11.009Z,26.42
2023-04-22T03:20:10.996Z,26.46
2023-04-22T03:21:11.006Z,26.47
2023-04-22T03:22:11.014Z,26.43
2023-04-22T03:23:11.036Z,26.45
2023-04-22T03:24:11.063Z,26.49
2023-04-22T03:25:11.047Z,26.52
2023-04-22T03:26:11.062Z,26.50
2023-04-22T03:27:11.079Z,26.45
2023-04-22T03:28:11.103Z,26.50
2023-04-22T03:29:11.103Z,26.43
2023-04-22T03:30:11.118Z,26.52
2023-04-22T03:31:11.128Z,26.50
2023-04-22T03:32:11.266Z,26.45
2023-04-22T03:33:11.183Z,26.45
2023-04-22T03:34:11.167Z,26.41
2023-04-22T03:35:11.187Z,26.45
2023-04-22T03:36:11.196Z,26.49
2023-04-22T03:37:11.212Z,26.47
2023-04-22T03:38:11.235Z,26.50
2023-04-22T03:39:11.237Z,26.45
2023-04-22T03:40:13.049Z,26.45
2023-04-22T03:41:11.245Z,26.50
2023-04-22T03:42:11.246Z,26.45
2023-04-22T03:43:11.232Z,26.46
2023-04-22T03:44:11.218Z,26.42
2023-04-22T03:45:11.211Z,26.43
2023-04-22T03:46:11.282Z,26.47
2023-04-22T03:47:11.198Z,26.42
2023-04-22T03:48:11.195Z,26.49
2023-04-22T03:49:11.185Z,26.45
2023-04-22T03:50:11.221Z,26.42
2023-04-22T03:51:11.185Z,26.42
2023-04-22T03:52:11.175Z,26.42
2023-04-22T03:53:11.171Z,26.42
2023-04-22T03:54:11.148Z,26.39
2023-04-22T03:55:11.136Z,26.35
2023-04-22T03:56:11.165Z,26.46
2023-04-22T03:57:11.129Z,26.41
2023-04-22T03:58:11.122Z,26.45
2023-04-22T03:59:11.116Z,26.42
2023-04-22T04:00:11.111Z,26.45
2023-04-22T04:01:11.123Z,26.41
2023-04-22T04:02:11.203Z,26.42
2023-04-22T04:03:11.323Z,26.45
2023-04-22T04:04:11.262Z,26.46
2023-04-22T04:05:11.191Z,26.41
2023-04-22T04:06:11.093Z,26.42
2023-04-22T04:07:11.053Z,26.42
2023-04-22T04:08:11.046Z,26.42
2023-04-22T04:09:11.043Z,26.43
2023-04-22T04:10:11.027Z,26.45
2023-04-22T04:11:11.030Z,26.39
2023-04-22T04:12:11.045Z,26.38
2023-04-22T04:13:11.011Z,26.37
2023-04-22T04:14:11.011Z,26.35
2023-04-22T04:15:10.998Z,26.32
2023-04-22T04:16:11.031Z,26.35
2023-04-22T04:17:09.987Z,26.41
2023-04-22T04:18:10.982Z,26.36
2023-04-22T04:19:10.973Z,26.30
2023-04-22T04:20:10.974Z,26.35
2023-04-22T04:21:10.961Z,26.38
2023-04-22T04:22:10.989Z,26.38
2023-04-22T04:23:10.934Z,26.39
2023-04-22T04:24:10.943Z,26.37
2023-04-22T04:25:10.926Z,26.39
2023-04-22T04:26:10.919Z,26.31
2023-04-22T04:27:10.920Z,26.38
2023-04-22T04:28:10.956Z,26.35
2023-04-22T04:29:10.901Z,26.34
2023-04-22T04:30:10.883Z,26.28
2023-04-22T04:31:10.919Z,26.31
2023-04-22T04:32:10.897Z,26.28
2023-04-22T04:33:10.943Z,26.26
2023-04-22T04:34:10.863Z,26.31
2023-04-22T04:35:10.857Z,26.27
2023-04-22T04:36:10.861Z,26.22
2023-04-22T04:37:10.886Z,26.27
2023-04-22T04:38:10.896Z,26.28
2023-04-22T04:39:10.917Z,26.27
2023-04-22T04:40:10.947Z,26.26
2023-04-22T04:41:10.961Z,26.27
2023-04-22T04:42:10.971Z,26.25
2023-04-22T04:43:10.992Z,26.25
2023-04-22T04:44:11.047Z,26.23
2023-04-22T04:45:11.021Z,26.26
2023-04-22T04:46:11.096Z,26.26
2023-04-22T04:47:11.058Z,26.26
2023-04-22T04:48:11.109Z,26.22
2023-04-22T04:49:11.080Z,26.23
2023-04-22T04:50:11.113Z,26.23
2023-04-22T04:51:11.106Z,26.28
2023-04-22T04:52:11.124Z,26.26
2023-04-22T04:53:11.141Z,26.25
2023-04-22T04:54:11.166Z,26.29
2023-04-22T04:55:11.180Z,26.30
2023-04-22T04:56:11.200Z,26.25
2023-04-22T04:57:11.235Z,26.26
2023-04-22T04:58:11.249Z,26.28
2023-04-22T04:59:11.256Z,26.23
2023-04-22T05:00:11.279Z,26.29
2023-04-22T05:01:11.311Z,26.23
2023-04-22T05:02:11.408Z,26.26
2023-04-22T05:03:11.411Z,26.25
2023-04-22T05:04:11.544Z,26.26
2023-04-22T05:05:11.335Z,26.26
2023-04-22T05:06:11.341Z,26.26
2023-04-22T05:07:11.363Z,26.27
2023-04-22T05:08:11.378Z,26.25
2023-04-22T05:09:11.400Z,26.27
2023-04-22T05:10:11.410Z,26.30
2023-04-22T05:11:11.427Z,26.26
2023-04-22T05:12:11.448Z,26.30
2023-04-22T05:13:11.488Z,26.23
2023-04-22T05:14:11.477Z,26.23
2023-04-22T05:15:11.496Z,26.25
2023-04-22T05:16:11.558Z,26.27
2023-04-22T05:17:11.508Z,26.25
2023-04-22T05:18:11.589Z,26.29
2023-04-22T05:19:11.552Z,26.26
2023-04-22T05:20:11.559Z,26.23
2023-04-22T05:21:11.578Z,26.29
2023-04-22T05:22:11.585Z,26.26
2023-04-22T05:23:11.592Z,26.30
2023-04-22T05:24:11.608Z,26.25
2023-04-22T05:25:11.621Z,26.29
2023-04-22T05:26:11.632Z,26.34
2023-04-22T05:27:11.654Z,26.28
2023-04-22T05:28:11.684Z,26.26
2023-04-22T05:29:11.678Z,26.28
2023-04-22T05:30:11.688Z,26.34
2023-04-22T05:31:11.705Z,26.27
2023-04-22T05:32:11.791Z,26.28
2023-04-22T05:33:11.753Z,26.29
2023-04-22T05:34:11.756Z,26.34
2023-04-22T05:35:11.747Z,26.29
2023-04-22T05:36:11.767Z,26.33
2023-04-22T05:37:11.785Z,26.35
2023-04-22T05:38:11.837Z,26.30
2023-04-22T05:39:11.806Z,26.34
2023-04-22T05:40:11.846Z,26.26
2023-04-22T05:41:11.827Z,26.22
2023-04-22T05:42:11.851Z,26.19
2023-04-22T05:43:11.847Z,26.23
2023-04-22T05:44:11.862Z,26.33
2023-04-22T05:45:11.877Z,26.30
2023-04-22T05:46:11.966Z,26.22
2023-04-22T05:47:11.908Z,26.28
2023-04-22T05:48:11.991Z,26.25
2023-04-22T05:49:11.945Z,26.23
2023-04-22T05:50:11.958Z,26.22
2023-04-22T05:51:11.993Z,26.25
2023-04-22T05:52:11.991Z,26.34
2023-04-22T05:53:12.009Z,26.19
2023-04-22T05:54:12.023Z,26.30
2023-04-22T05:55:12.042Z,25.75
2023-04-22T05:56:12.072Z,25.15
2023-04-22T05:57:12.134Z,25.37
2023-04-22T05:58:12.132Z,25.45
2023-04-22T05:59:12.134Z,25.51
2023-04-22T06:00:12.173Z,25.46
2023-04-22T06:01:12.175Z,25.42
2023-04-22T06:02:12.251Z,25.49
2023-04-22T06:03:12.329Z,25.72
2023-04-22T06:04:12.604Z,25.78
2023-04-22T06:05:12.359Z,25.85
2023-04-22T06:06:12.322Z,25.90
2023-04-22T06:07:12.356Z,25.84
2023-04-22T06:08:12.385Z,25.85
2023-04-22T06:09:12.423Z,25.89
2023-04-22T06:10:12.463Z,25.90
2023-04-22T06:11:12.503Z,25.98
2023-04-22T06:12:12.544Z,25.94
2023-04-22T06:13:12.590Z,26.03
2023-04-22T06:14:12.646Z,25.72
2023-04-22T06:15:12.687Z,25.92
2023-04-22T06:16:12.715Z,26.02
2023-04-22T06:17:12.709Z,26.09
2023-04-22T06:18:12.754Z,26.17
2023-04-22T06:19:12.805Z,26.22
2023-04-22T06:20:12.961Z,26.27
2023-04-22T06:21:12.931Z,26.27
2023-04-22T06:22:12.976Z,26.33
2023-04-22T06:23:13.007Z,26.37
2023-04-22T06:24:13.053Z,26.25
2023-04-22T06:25:13.081Z,26.24
2023-04-22T06:26:13.091Z,26.16
2023-04-22T06:27:13.111Z,26.12
2023-04-22T06:28:13.138Z,26.11
2023-04-22T06:29:13.170Z,25.94
2023-04-22T06:30:13.177Z,25.92
2023-04-22T06:31:13.218Z,25.93
2023-04-22T06:32:13.205Z,26.07
2023-04-22T06:33:13.256Z,26.04
2023-04-22T06:34:13.261Z,26.04
2023-04-22T06:35:13.250Z,26.07
2023-04-22T06:36:13.302Z,26.04
2023-04-22T06:37:13.250Z,26.16
2023-04-22T06:38:13.280Z,26.12
2023-04-22T06:39:13.281Z,26.11
2023-04-22T06:40:13.284Z,26.21
2023-04-22T06:41:13.284Z,26.08
2023-04-22T06:42:13.299Z,26.07
2023-04-22T06:43:13.301Z,26.03
2023-04-22T06:44:13.293Z,26.10
2023-04-22T06:45:13.293Z,26.09
2023-04-22T06:46:13.319Z,26.10
2023-04-22T06:47:13.320Z,26.11
2023-04-22T06:48:13.296Z,26.09
2023-04-22T06:49:13.295Z,26.08
2023-04-22T06:50:13.300Z,26.16
2023-04-22T06:51:13.303Z,26.20
2023-04-22T06:52:13.340Z,26.14
2023-04-22T06:53:13.306Z,26.19
2023-04-22T06:54:13.297Z,26.22
2023-04-22T06:55:13.312Z,26.16
2023-04-22T06:56:13.284Z,26.24
2023-04-22T06:57:13.286Z,26.27
2023-04-22T06:58:13.282Z,26.31
2023-04-22T06:59:13.280Z,26.28
2023-04-22T07:00:13.304Z,26.20
2023-04-22T07:01:13.283Z,26.25
2023-04-22T07:02:13.450Z,26.22
2023-04-22T07:03:13.401Z,26.28
2023-04-22T07:04:13.286Z,26.30
2023-04-22T07:05:13.269Z,26.28
2023-04-22T07:06:13.283Z,26.34
2023-04-22T07:07:13.286Z,26.37
2023-04-22T07:08:13.288Z,26.37
2023-04-22T07:09:13.266Z,26.39
2023-04-22T07:10:13.269Z,26.42
2023-04-22T07:11:14.497Z,26.45
2023-04-22T07:12:13.280Z,26.55
2023-04-22T07:13:13.291Z,26.58
2023-04-22T07:14:13.293Z,26.60
2023-04-22T07:15:13.323Z,26.38
2023-04-22T07:16:13.343Z,26.36
2023-04-22T07:17:13.372Z,26.34
2023-04-22T07:18:13.439Z,26.50
2023-04-22T07:19:13.421Z,26.73
2023-04-22T07:20:14.423Z,26.91
2023-04-22T07:21:13.428Z,26.98
2023-04-22T07:22:13.454Z,27.13
2023-04-22T07:23:13.495Z,27.53
2023-04-22T07:24:13.557Z,27.55
2023-04-22T07:25:13.585Z,27.57
2023-04-22T07:26:13.627Z,27.71
2023-04-22T07:27:13.634Z,27.66
2023-04-22T07:28:13.704Z,27.82
2023-04-22T07:29:13.753Z,27.94
2023-04-22T07:30:13.802Z,28.03
2023-04-22T07:31:13.816Z,28.13
2023-04-22T07:32:13.906Z,28.08
2023-04-22T07:33:13.827Z,28.12
2023-04-22T07:34:13.826Z,28.07
2023-04-22T07:35:13.861Z,28.12
2023-04-22T07:36:13.928Z,27.98
2023-04-22T07:37:13.986Z,27.92
2023-04-22T07:38:14.724Z,27.86
2023-04-22T07:39:14.074Z,27.75
2023-04-22T07:40:14.158Z,27.68
2023-04-22T07:41:14.171Z,27.67
2023-04-22T07:42:14.183Z,27.59
2023-04-22T07:43:14.196Z,27.48
2023-04-22T07:44:14.211Z,27.51
2023-04-22T07:45:14.222Z,27.49
2023-04-22T07:46:14.266Z,27.46
2023-04-22T07:47:14.249Z,27.34
2023-04-22T07:48:14.264Z,27.25
2023-04-22T07:49:14.491Z,27.25
2023-04-22T07:50:14.258Z,27.26
2023-04-22T07:51:14.255Z,27.25
2023-04-22T07:52:14.270Z,27.22
2023-04-22T07:53:14.430Z,27.12
2023-04-22T07:54:14.266Z,27.03
2023-04-22T07:55:14.239Z,27.08
2023-04-22T07:56:14.270Z,27.05
2023-04-22T07:57:14.243Z,26.93
2023-04-22T07:58:14.249Z,26.94
2023-04-22T07:59:14.238Z,27.00
2023-04-22T08:00:14.245Z,26.97
2023-04-22T08:01:14.347Z,26.97
2023-04-22T08:02:14.300Z,26.95
2023-04-22T08:03:14.388Z,26.94
2023-04-22T08:04:14.638Z,27.01
2023-04-22T08:05:14.305Z,26.94
2023-04-22T08:06:14.257Z,26.93
2023-04-22T08:07:30.866Z,26.90
2023-04-22T08:08:14.260Z,26.92
2023-04-22T08:09:14.260Z,26.93
2023-04-22T08:10:14.252Z,26.87
2023-04-22T08:11:14.244Z,26.85
2023-04-22T08:12:14.256Z,26.87
2023-04-22T08:13:15.283Z,26.79
2023-04-22T08:14:14.430Z,26.83
2023-04-22T08:15:14.462Z,26.75
2023-04-22T08:16:14.589Z,26.77
2023-04-22T08:17:14.577Z,26.82
2023-04-22T08:18:14.637Z,26.79
2023-04-22T08:19:14.682Z,26.91
2023-04-22T08:20:14.736Z,26.77
2023-04-22T08:21:14.781Z,26.94
2023-04-22T08:22:14.795Z,26.86
2023-04-22T08:23:14.830Z,26.85
2023-04-22T08:24:14.894Z,26.82
2023-04-22T08:25:14.926Z,26.86
2023-04-22T08:26:14.991Z,26.61
2023-04-22T08:27:14.925Z,26.37
2023-04-22T08:28:14.984Z,26.43
2023-04-22T08:29:15.006Z,26.62
2023-04-22T08:30:15.039Z,26.68
2023-04-22T08:31:15.073Z,26.76
2023-04-22T08:32:15.070Z,26.83
2023-04-22T08:33:15.078Z,26.88
2023-04-22T08:34:15.093Z,26.92
2023-04-22T08:35:15.107Z,26.88
2023-04-22T08:36:15.093Z,26.95
2023-04-22T08:37:15.107Z,26.98
2023-04-22T08:38:15.127Z,27.04
2023-04-22T08:39:15.168Z,27.13
2023-04-22T08:40:15.241Z,27.19
2023-04-22T08:41:15.298Z,27.31
2023-04-22T08:42:15.355Z,27.34
2023-04-22T08:43:15.403Z,27.38
2023-04-22T08:44:15.478Z,27.45
2023-04-22T08:45:15.504Z,27.44
2023-04-22T08:46:15.567Z,27.55
2023-04-22T08:47:15.592Z,27.57
2023-04-22T08:48:15.626Z,27.63
2023-04-22T08:49:15.667Z,27.74
2023-04-22T08:50:15.711Z,27.75
2023-04-22T08:51:15.738Z,27.90
2023-04-22T08:52:15.782Z,27.95
2023-04-22T08:53:15.795Z,28.00
2023-04-22T08:54:15.816Z,28.03
2023-04-22T08:55:15.840Z,28.17
2023-04-22T08:56:15.874Z,28.19
2023-04-22T08:57:15.897Z,28.33
2023-04-22T08:58:15.925Z,28.37
2023-04-22T08:59:15.950Z,28.43
2023-04-22T09:00:16.012Z,28.43
2023-04-22T09:01:16.014Z,28.48
2023-04-22T09:02:16.071Z,28.58
2023-04-22T09:03:16.114Z,28.54
2023-04-22T09:04:16.152Z,28.66
2023-04-22T09:05:16.129Z,28.66
2023-04-22T09:06:16.125Z,28.70
2023-04-22T09:07:16.151Z,28.70
2023-04-22T09:08:16.182Z,28.72
2023-04-22T09:09:16.199Z,28.80
2023-04-22T09:10:16.248Z,28.84
2023-04-22T09:11:16.253Z,28.89
2023-04-22T09:12:16.316Z,28.92
2023-04-22T09:13:16.309Z,29.00
2023-04-22T09:14:16.302Z,29.11
2023-04-22T09:15:16.341Z,29.14
2023-04-22T09:16:16.425Z,29.21
2023-04-22T09:17:16.371Z,29.26
2023-04-22T09:18:16.382Z,29.30
2023-04-22T09:19:16.392Z,29.32
2023-04-22T09:20:16.418Z,29.43
2023-04-22T09:21:16.416Z,29.52
2023-04-22T09:22:16.426Z,29.52
2023-04-22T09:23:16.434Z,29.59
2023-04-22T09:24:16.445Z,29.60
2023-04-22T09:25:16.454Z,29.70
2023-04-22T09:26:16.464Z,29.75
2023-04-22T09:27:16.470Z,29.68
2023-04-22T09:28:16.489Z,29.92
2023-04-22T09:29:16.496Z,29.90
2023-04-22T09:30:16.513Z,29.98
2023-04-22T09:31:16.565Z,30.05
2023-04-22T09:32:16.678Z,30.12
2023-04-22T09:33:16.533Z,30.15
2023-04-22T09:34:16.549Z,30.10
2023-04-22T09:35:16.570Z,30.25
2023-04-22T09:36:16.555Z,30.31
2023-04-22T09:37:16.567Z,30.35
2023-04-22T09:38:16.568Z,30.46
2023-04-22T09:39:16.578Z,30.55
2023-04-22T09:40:16.583Z,30.57
2023-04-22T09:41:16.586Z,30.57
2023-04-22T09:42:15.582Z,30.67
2023-04-22T09:43:16.587Z,30.71
2023-04-22T09:44:16.587Z,30.75
2023-04-22T09:45:16.592Z,30.89
2023-04-22T09:46:16.625Z,30.95
2023-04-22T09:47:16.594Z,30.80
2023-04-22T09:48:16.622Z,30.51
2023-04-22T09:49:16.604Z,29.88
2023-04-22T09:50:16.624Z,28.45
2023-04-22T09:51:16.640Z,28.38
2023-04-22T09:52:16.660Z,28.33
2023-04-22T09:53:16.686Z,28.43
2023-04-22T09:54:16.714Z,28.00
2023-04-22T09:55:16.748Z,28.14
2023-04-22T09:56:16.777Z,27.78
2023-04-22T09:57:16.812Z,27.97
2023-04-22T09:58:16.848Z,27.93
2023-04-22T09:59:16.893Z,27.67
2023-04-22T10:00:16.979Z,27.77
2023-04-22T10:01:17.015Z,27.72
2023-04-22T10:02:17.027Z,27.50
2023-04-22T10:03:17.201Z,26.94
2023-04-22T10:04:17.142Z,26.36
2023-04-22T10:05:17.169Z,26.44
2023-04-22T10:06:17.202Z,26.82
2023-04-22T10:07:17.242Z,26.76
2023-04-22T10:08:17.380Z,26.75
2023-04-22T10:09:17.366Z,26.65
2023-04-22T10:10:17.479Z,26.61
2023-04-22T10:11:17.489Z,26.74
2023-04-22T10:12:25.999Z,26.78
2023-04-22T10:13:17.557Z,26.75
2023-04-22T10:14:17.565Z,26.83
2023-04-22T10:15:17.542Z,26.75
2023-04-22T10:16:17.556Z,26.78
2023-04-22T10:17:17.516Z,26.72
2023-04-22T10:18:17.508Z,26.43
2023-04-22T10:19:17.518Z,26.61
2023-04-22T10:20:17.583Z,26.70
2023-04-22T10:21:17.490Z,26.54
2023-04-22T10:22:17.476Z,26.68
2023-04-22T10:23:17.544Z,26.53
2023-04-22T10:24:17.476Z,26.38
2023-04-22T10:25:17.460Z,26.42
2023-04-22T10:26:17.461Z,26.25
2023-04-22T10:27:17.460Z,26.34
2023-04-22T10:28:17.437Z,26.41
2023-04-22T10:29:17.446Z,26.55
2023-04-22T10:30:17.425Z,26.57
2023-04-22T10:31:17.455Z,26.88
2023-04-22T10:32:17.415Z,26.78
2023-04-22T10:33:17.408Z,26.52
2023-04-22T10:34:17.397Z,26.72
2023-04-22T10:35:17.390Z,26.70
2023-04-22T10:36:17.419Z,26.77
2023-04-22T10:37:17.381Z,26.85
2023-04-22T10:38:17.374Z,26.65
2023-04-22T10:39:17.405Z,26.78
2023-04-22T10:40:17.395Z,26.85
2023-04-22T10:41:17.367Z,26.70
2023-04-22T10:42:17.344Z,26.60
2023-04-22T10:43:17.333Z,26.57
2023-04-22T10:44:17.319Z,26.46
2023-04-22T10:45:17.323Z,26.69
2023-04-22T10:46:17.335Z,26.77
2023-04-22T10:47:17.426Z,26.73
2023-04-22T10:48:17.291Z,26.75
2023-04-22T10:49:17.280Z,26.56
2023-04-22T10:50:17.349Z,26.56
2023-04-22T10:51:17.275Z,26.70
2023-04-22T10:52:17.290Z,25.20
2023-04-22T10:53:17.302Z,25.08
2023-04-22T10:54:17.325Z,24.64
2023-04-22T10:55:17.356Z,24.49
2023-04-22T10:56:17.394Z,24.03
2023-04-22T10:57:17.426Z,23.41
2023-04-22T10:58:17.459Z,23.38
2023-04-22T10:59:17.498Z,23.47
2023-04-22T11:00:17.549Z,23.81
2023-04-22T11:01:17.633Z,23.10
2023-04-22T11:02:17.700Z,23.10
2023-04-22T11:03:17.937Z,23.30
2023-04-22T11:04:17.929Z,22.80
2023-04-22T11:05:17.832Z,22.77
2023-04-22T11:06:17.885Z,23.01
2023-04-22T11:07:17.960Z,23.04
2023-04-22T11:08:18.025Z,22.97
2023-04-22T11:09:18.066Z,23.00
2023-04-22T11:10:18.124Z,23.01
2023-04-22T11:11:18.179Z,23.02
2023-04-22T11:12:18.252Z,23.09
2023-04-22T11:13:18.295Z,23.05
2023-04-22T11:14:18.345Z,23.04
2023-04-22T11:15:18.406Z,22.98
2023-04-22T11:16:20.483Z,23.03
2023-04-22T11:17:18.454Z,23.09
2023-04-22T11:18:18.451Z,23.10
2023-04-22T11:19:18.442Z,23.09
2023-04-22T11:20:18.485Z,23.14
2023-04-22T11:21:18.429Z,23.14
2023-04-22T11:22:19.011Z,23.13
2023-04-22T11:23:18.422Z,23.14
2023-04-22T11:24:18.437Z,23.16
2023-04-22T11:25:18.404Z,23.16
2023-04-22T11:26:18.402Z,23.12
2023-04-22T11:27:18.399Z,23.19
2023-04-22T11:28:20.432Z,23.22
2023-04-22T11:29:18.378Z,23.19
2023-04-22T11:30:18.371Z,23.32
2023-04-22T11:31:18.396Z,23.31
2023-04-22T11:32:18.361Z,23.29
2023-04-22T11:33:18.358Z,23.35
2023-04-22T11:34:18.347Z,23.38
2023-04-22T11:35:18.336Z,23.43
2023-04-22T11:36:18.328Z,23.47
2023-04-22T11:37:18.322Z,23.43
2023-04-22T11:38:18.327Z,23.49
2023-04-22T11:39:18.314Z,23.41
2023-04-22T11:40:29.309Z,23.50
2023-04-22T11:41:18.307Z,23.54
2023-04-22T11:42:18.291Z,23.65
2023-04-22T11:43:18.290Z,23.61
2023-04-22T11:44:18.285Z,23.55
2023-04-22T11:45:18.284Z,23.58
2023-04-22T11:46:19.320Z,23.64
2023-04-22T11:47:18.261Z,23.78
2023-04-22T11:48:18.282Z,23.84
2023-04-22T11:49:18.255Z,23.73
2023-04-22T11:50:18.244Z,23.80
2023-04-22T11:51:18.236Z,23.89
2023-04-22T11:52:19.536Z,23.88
2023-04-22T11:53:18.259Z,23.88
2023-04-22T11:54:18.245Z,23.88
2023-04-22T11:55:18.277Z,23.86
2023-04-22T11:56:18.335Z,23.88
2023-04-22T11:57:18.338Z,23.92
2023-04-22T11:58:18.376Z,23.93
2023-04-22T11:59:18.397Z,23.88
2023-04-22T12:00:18.442Z,23.93
2023-04-22T12:01:18.478Z,23.93
2023-04-22T12:02:18.611Z,23.84
2023-04-22T12:03:18.670Z,23.81
2023-04-22T12:04:18.618Z,23.86
2023-04-22T12:05:18.628Z,23.88
2023-04-22T12:06:18.634Z,23.92
2023-04-22T12:07:18.659Z,24.02
2023-04-22T12:08:18.720Z,23.96
2023-04-22T12:09:18.723Z,24.06
2023-04-22T12:10:18.748Z,24.08
2023-04-22T12:11:18.774Z,24.08
2023-04-22T12:12:18.832Z,24.07
2023-04-22T12:13:18.829Z,24.03
2023-04-22T12:14:18.861Z,24.08
2023-04-22T12:15:18.968Z,24.09
2023-04-22T12:16:19.214Z,24.15
2023-04-22T12:17:18.957Z,24.16
2023-04-22T12:18:18.994Z,24.11
2023-04-22T12:19:19.031Z,24.16
2023-04-22T12:20:19.070Z,24.19
2023-04-22T12:21:19.083Z,24.12
2023-04-22T12:22:19.107Z,24.12
2023-04-22T12:23:19.145Z,24.09
2023-04-22T12:24:19.177Z,24.12
2023-04-22T12:25:19.195Z,24.09
2023-04-22T12:26:19.233Z,24.13
2023-04-22T12:27:19.251Z,24.18
2023-04-22T12:28:19.307Z,24.17
2023-04-22T12:29:19.320Z,24.13
2023-04-22T12:30:19.338Z,24.23
2023-04-22T12:31:19.432Z,24.18
2023-04-22T12:32:19.400Z,24.18
2023-04-22T12:33:19.445Z,24.20
2023-04-22T12:34:19.454Z,24.20
2023-04-22T12:35:19.489Z,24.16
2023-04-22T12:36:19.513Z,24.23
2023-04-22T12:37:19.541Z,24.22
2023-04-22T12:38:19.569Z,24.19
2023-04-22T12:39:19.601Z,24.26
2023-04-22T12:40:19.613Z,24.27
2023-04-22T12:41:19.662Z,24.26
2023-04-22T12:42:19.653Z,24.27
2023-04-22T12:43:19.675Z,24.31
2023-04-22T12:44:19.740Z,24.33
2023-04-22T12:45:19.717Z,24.33
2023-04-22T12:46:19.845Z,24.34
2023-04-22T12:47:19.806Z,24.41
2023-04-22T12:48:19.789Z,24.42
2023-04-22T12:49:19.815Z,24.43
2023-04-22T12:50:19.831Z,24.45
2023-04-22T12:51:19.863Z,24.41
2023-04-22T12:52:19.894Z,24.43
2023-04-22T12:53:19.907Z,24.44
2023-04-22T12:54:19.942Z,24.43